sensor_id;sensor_type;location;lat;lon;timestamp;P1;durP1;ratioP1;P2;durP2;ratioP2
11086;SDS011;5597;47.588;9.642;2023-05-10T00:01:48;0.80;;;0.80;;
11086;SDS011;5597;47.588;9.642;2023-05-10T00:04:14;0.70;;;0.70;;
11086;SDS011;5597;47.588;9.642;2023-05-10T00:06:40;0.70;;;0.70;;
11086;SDS011;5597;47.588;9.642;2023-05-10T00:09:05;0.60;;;0.60;;
11086;SDS011;5597;47.588;9.642;2023-05-10T00:11:31;0.90;;;0.60;;
11086;SDS011;5597;47.588;9.642;2023-05-10T00:13:56;1.37;;;0.90;;
11086;SDS011;5597;47.588;9.642;2023-05-10T00:16:22;0.60;;;0.60;;
11086;SDS011;5597;47.588;9.642;2023-05-10T00:18:48;1.77;;;0.67;;
11086;SDS011;5597;47.588;9.642;2023-05-10T00:21:13;1.90;;;0.47;;
11086;SDS011;5597;47.588;9.642;2023-05-10T00:23:39;0.37;;;0.30;;
11086;SDS011;5597;47.588;9.642;2023-05-10T00:26:05;0.70;;;0.50;;
11086;SDS011;5597;47.588;9.642;2023-05-10T00:28:30;0.50;;;0.40;;
11086;SDS011;5597;47.588;9.642;2023-05-10T00:30:56;5.40;;;0.50;;
11086;SDS011;5597;47.588;9.642;2023-05-10T00:33:22;1.70;;;0.60;;
11086;SDS011;5597;47.588;9.642;2023-05-10T00:35:47;0.40;;;0.40;;
11086;SDS011;5597;47.588;9.642;2023-05-10T00:38:13;0.40;;;0.40;;
11086;SDS011;5597;47.588;9.642;2023-05-10T00:40:39;0.33;;;0.33;;
11086;SDS011;5597;47.588;9.642;2023-05-10T00:43:05;0.60;;;0.30;;
11086;SDS011;5597;47.588;9.642;2023-05-10T00:45:31;0.40;;;0.40;;
11086;SDS011;5597;47.588;9.642;2023-05-10T00:47:58;0.40;;;0.40;;
11086;SDS011;5597;47.588;9.642;2023-05-10T00:50:26;1.90;;;0.37;;
11086;SDS011;5597;47.588;9.642;2023-05-10T00:52:51;1.00;;;0.40;;
11086;SDS011;5597;47.588;9.642;2023-05-10T00:55:17;0.70;;;0.50;;
11086;SDS011;5597;47.588;9.642;2023-05-10T00:57:43;0.80;;;0.50;;
11086;SDS011;5597;47.588;9.642;2023-05-10T01:00:09;0.20;;;0.20;;
11086;SDS011;5597;47.588;9.642;2023-05-10T01:02:36;0.40;;;0.40;;
11086;SDS011;5597;47.588;9.642;2023-05-10T01:05:02;0.40;;;0.40;;
11086;SDS011;5597;47.588;9.642;2023-05-10T01:07:31;0.90;;;0.40;;
11086;SDS011;5597;47.588;9.642;2023-05-10T01:09:56;1.37;;;0.40;;
11086;SDS011;5597;47.588;9.642;2023-05-10T01:12:22;0.77;;;0.50;;
11086;SDS011;5597;47.588;9.642;2023-05-10T01:14:48;0.50;;;0.40;;
11086;SDS011;5597;47.588;9.642;2023-05-10T01:17:14;0.40;;;0.40;;
11086;SDS011;5597;47.588;9.642;2023-05-10T01:19:41;1.03;;;0.30;;
11086;SDS011;5597;47.588;9.642;2023-05-10T01:25:01;0.80;;;0.40;;
11086;SDS011;5597;47.588;9.642;2023-05-10T01:34:16;0.83;;;0.57;;
11086;SDS011;5597;47.588;9.642;2023-05-10T01:36:54;1.80;;;0.50;;
11086;SDS011;5597;47.588;9.642;2023-05-10T01:39:25;0.47;;;0.40;;
11086;SDS011;5597;47.588;9.642;2023-05-10T01:44:40;1.10;;;0.67;;
11086;SDS011;5597;47.588;9.642;2023-05-10T01:47:15;0.60;;;0.50;;
11086;SDS011;5597;47.588;9.642;2023-05-10T01:49:54;0.80;;;0.50;;
11086;SDS011;5597;47.588;9.642;2023-05-10T01:52:30;0.60;;;0.40;;
11086;SDS011;5597;47.588;9.642;2023-05-10T01:55:07;1.30;;;0.73;;
11086;SDS011;5597;47.588;9.642;2023-05-10T01:57:35;0.60;;;0.60;;
11086;SDS011;5597;47.588;9.642;2023-05-10T02:00:04;0.73;;;0.60;;
11086;SDS011;5597;47.588;9.642;2023-05-10T02:02:33;0.60;;;0.60;;
11086;SDS011;5597;47.588;9.642;2023-05-10T02:05:01;1.27;;;0.77;;
11086;SDS011;5597;47.588;9.642;2023-05-10T02:07:30;0.90;;;0.70;;
11086;SDS011;5597;47.588;9.642;2023-05-10T02:09:58;0.70;;;0.70;;
11086;SDS011;5597;47.588;9.642;2023-05-10T02:12:24;0.97;;;0.63;;
11086;SDS011;5597;47.588;9.642;2023-05-10T02:14:52;1.10;;;0.70;;
11086;SDS011;5597;47.588;9.642;2023-05-10T02:17:18;1.10;;;0.70;;
11086;SDS011;5597;47.588;9.642;2023-05-10T02:19:45;0.97;;;0.80;;
11086;SDS011;5597;47.588;9.642;2023-05-10T02:22:12;0.60;;;0.60;;
11086;SDS011;5597;47.588;9.642;2023-05-10T02:24:38;1.43;;;0.70;;
11086;SDS011;5597;47.588;9.642;2023-05-10T02:27:05;1.47;;;0.70;;
11086;SDS011;5597;47.588;9.642;2023-05-10T02:29:32;0.67;;;0.60;;
11086;SDS011;5597;47.588;9.642;2023-05-10T02:31:59;0.70;;;0.70;;
11086;SDS011;5597;47.588;9.642;2023-05-10T02:34:26;1.23;;;0.80;;
11086;SDS011;5597;47.588;9.642;2023-05-10T02:36:53;0.60;;;0.60;;
11086;SDS011;5597;47.588;9.642;2023-05-10T02:39:20;0.70;;;0.70;;
11086;SDS011;5597;47.588;9.642;2023-05-10T02:41:46;0.80;;;0.80;;
11086;SDS011;5597;47.588;9.642;2023-05-10T02:44:15;0.60;;;0.60;;
11086;SDS011;5597;47.588;9.642;2023-05-10T02:46:44;0.80;;;0.70;;
11086;SDS011;5597;47.588;9.642;2023-05-10T02:49:10;0.70;;;0.60;;
11086;SDS011;5597;47.588;9.642;2023-05-10T02:51:36;0.80;;;0.80;;
11086;SDS011;5597;47.588;9.642;2023-05-10T02:54:18;1.07;;;0.70;;
11086;SDS011;5597;47.588;9.642;2023-05-10T02:56:50;0.80;;;0.63;;
11086;SDS011;5597;47.588;9.642;2023-05-10T02:59:18;1.23;;;0.70;;
11086;SDS011;5597;47.588;9.642;2023-05-10T03:01:44;0.80;;;0.70;;
11086;SDS011;5597;47.588;9.642;2023-05-10T03:04:10;0.80;;;0.67;;
11086;SDS011;5597;47.588;9.642;2023-05-10T03:06:35;1.47;;;0.87;;
11086;SDS011;5597;47.588;9.642;2023-05-10T03:09:01;0.63;;;0.60;;
11086;SDS011;5597;47.588;9.642;2023-05-10T03:11:32;0.77;;;0.67;;
11086;SDS011;5597;47.588;9.642;2023-05-10T03:16:36;0.77;;;0.77;;
11086;SDS011;5597;47.588;9.642;2023-05-10T03:20:03;0.80;;;0.80;;
11086;SDS011;5597;47.588;9.642;2023-05-10T03:22:34;0.90;;;0.60;;
11086;SDS011;5597;47.588;9.642;2023-05-10T03:25:04;0.80;;;0.80;;
11086;SDS011;5597;47.588;9.642;2023-05-10T03:27:31;0.80;;;0.70;;
11086;SDS011;5597;47.588;9.642;2023-05-10T03:29:58;0.70;;;0.70;;
11086;SDS011;5597;47.588;9.642;2023-05-10T03:32:26;1.13;;;0.80;;
11086;SDS011;5597;47.588;9.642;2023-05-10T03:34:55;0.67;;;0.67;;
11086;SDS011;5597;47.588;9.642;2023-05-10T03:37:20;1.67;;;0.70;;
11086;SDS011;5597;47.588;9.642;2023-05-10T03:39:46;0.60;;;0.60;;
11086;SDS011;5597;47.588;9.642;2023-05-10T03:42:11;0.87;;;0.87;;
11086;SDS011;5597;47.588;9.642;2023-05-10T03:44:38;0.80;;;0.80;;
11086;SDS011;5597;47.588;9.642;2023-05-10T03:47:04;1.80;;;1.00;;
11086;SDS011;5597;47.588;9.642;2023-05-10T03:49:29;0.70;;;0.70;;
11086;SDS011;5597;47.588;9.642;2023-05-10T03:51:55;0.93;;;0.83;;
11086;SDS011;5597;47.588;9.642;2023-05-10T03:54:20;3.50;;;1.30;;
11086;SDS011;5597;47.588;9.642;2023-05-10T03:56:46;0.93;;;0.83;;
11086;SDS011;5597;47.588;9.642;2023-05-10T03:59:13;1.00;;;0.80;;
11086;SDS011;5597;47.588;9.642;2023-05-10T04:01:38;1.27;;;0.73;;
11086;SDS011;5597;47.588;9.642;2023-05-10T04:04:04;1.13;;;0.80;;
11086;SDS011;5597;47.588;9.642;2023-05-10T04:06:30;0.70;;;0.70;;
11086;SDS011;5597;47.588;9.642;2023-05-10T04:08:55;1.07;;;0.70;;
11086;SDS011;5597;47.588;9.642;2023-05-10T04:11:21;0.70;;;0.70;;
11086;SDS011;5597;47.588;9.642;2023-05-10T04:13:47;1.10;;;0.80;;
11086;SDS011;5597;47.588;9.642;2023-05-10T04:16:13;1.00;;;0.80;;
11086;SDS011;5597;47.588;9.642;2023-05-10T04:18:38;1.33;;;0.80;;
11086;SDS011;5597;47.588;9.642;2023-05-10T04:21:10;0.70;;;0.70;;
11086;SDS011;5597;47.588;9.642;2023-05-10T04:23:37;0.80;;;0.80;;
11086;SDS011;5597;47.588;9.642;2023-05-10T04:26:02;0.80;;;0.80;;
11086;SDS011;5597;47.588;9.642;2023-05-10T04:28:29;0.87;;;0.87;;
11086;SDS011;5597;47.588;9.642;2023-05-10T04:31:00;0.67;;;0.63;;
11086;SDS011;5597;47.588;9.642;2023-05-10T04:33:29;1.00;;;0.90;;
11086;SDS011;5597;47.588;9.642;2023-05-10T04:35:55;0.80;;;0.80;;
11086;SDS011;5597;47.588;9.642;2023-05-10T04:38:20;0.70;;;0.70;;
11086;SDS011;5597;47.588;9.642;2023-05-10T04:40:46;1.50;;;0.77;;
11086;SDS011;5597;47.588;9.642;2023-05-10T04:43:12;1.00;;;0.83;;
11086;SDS011;5597;47.588;9.642;2023-05-10T04:45:38;0.83;;;0.83;;
11086;SDS011;5597;47.588;9.642;2023-05-10T04:48:03;0.80;;;0.80;;
11086;SDS011;5597;47.588;9.642;2023-05-10T04:50:29;0.70;;;0.70;;
11086;SDS011;5597;47.588;9.642;2023-05-10T04:52:55;1.00;;;0.80;;
11086;SDS011;5597;47.588;9.642;2023-05-10T04:55:20;1.17;;;0.93;;
11086;SDS011;5597;47.588;9.642;2023-05-10T04:57:46;1.43;;;0.80;;
11086;SDS011;5597;47.588;9.642;2023-05-10T05:00:11;0.80;;;0.80;;
11086;SDS011;5597;47.588;9.642;2023-05-10T05:02:37;0.70;;;0.70;;
11086;SDS011;5597;47.588;9.642;2023-05-10T05:05:03;0.80;;;0.80;;
11086;SDS011;5597;47.588;9.642;2023-05-10T05:07:29;1.10;;;0.90;;
11086;SDS011;5597;47.588;9.642;2023-05-10T05:09:55;0.73;;;0.73;;
11086;SDS011;5597;47.588;9.642;2023-05-10T05:12:21;0.70;;;0.70;;
11086;SDS011;5597;47.588;9.642;2023-05-10T05:14:46;0.70;;;0.70;;
11086;SDS011;5597;47.588;9.642;2023-05-10T05:17:12;1.53;;;0.70;;
11086;SDS011;5597;47.588;9.642;2023-05-10T05:19:38;0.80;;;0.80;;
11086;SDS011;5597;47.588;9.642;2023-05-10T05:22:03;0.93;;;0.73;;
11086;SDS011;5597;47.588;9.642;2023-05-10T05:24:34;0.80;;;0.80;;
11086;SDS011;5597;47.588;9.642;2023-05-10T05:27:02;0.70;;;0.70;;
11086;SDS011;5597;47.588;9.642;2023-05-10T05:29:28;1.20;;;1.10;;
11086;SDS011;5597;47.588;9.642;2023-05-10T05:31:53;0.80;;;0.80;;
11086;SDS011;5597;47.588;9.642;2023-05-10T05:34:19;0.93;;;0.83;;
11086;SDS011;5597;47.588;9.642;2023-05-10T05:36:45;0.70;;;0.60;;
11086;SDS011;5597;47.588;9.642;2023-05-10T05:39:11;0.80;;;0.77;;
11086;SDS011;5597;47.588;9.642;2023-05-10T05:41:36;0.90;;;0.80;;
11086;SDS011;5597;47.588;9.642;2023-05-10T05:44:02;1.20;;;0.83;;
11086;SDS011;5597;47.588;9.642;2023-05-10T05:46:27;0.80;;;0.80;;
11086;SDS011;5597;47.588;9.642;2023-05-10T05:48:53;0.90;;;0.90;;
11086;SDS011;5597;47.588;9.642;2023-05-10T05:51:18;1.27;;;0.90;;
11086;SDS011;5597;47.588;9.642;2023-05-10T05:53:44;1.00;;;0.90;;
11086;SDS011;5597;47.588;9.642;2023-05-10T05:56:10;0.90;;;0.90;;
11086;SDS011;5597;47.588;9.642;2023-05-10T05:58:35;1.50;;;0.83;;
11086;SDS011;5597;47.588;9.642;2023-05-10T06:01:01;0.63;;;0.63;;
11086;SDS011;5597;47.588;9.642;2023-05-10T06:03:26;0.80;;;0.80;;
11086;SDS011;5597;47.588;9.642;2023-05-10T06:05:52;1.37;;;0.80;;
11086;SDS011;5597;47.588;9.642;2023-05-10T06:08:17;1.70;;;0.87;;
11086;SDS011;5597;47.588;9.642;2023-05-10T06:10:43;0.73;;;0.73;;
11086;SDS011;5597;47.588;9.642;2023-05-10T06:13:09;0.80;;;0.80;;
11086;SDS011;5597;47.588;9.642;2023-05-10T06:15:35;0.80;;;0.80;;
11086;SDS011;5597;47.588;9.642;2023-05-10T06:18:00;2.07;;;1.07;;
11086;SDS011;5597;47.588;9.642;2023-05-10T06:20:26;1.20;;;0.97;;
11086;SDS011;5597;47.588;9.642;2023-05-10T06:22:51;0.97;;;0.87;;
11086;SDS011;5597;47.588;9.642;2023-05-10T06:25:17;1.00;;;0.90;;
11086;SDS011;5597;47.588;9.642;2023-05-10T06:27:43;1.73;;;0.90;;
11086;SDS011;5597;47.588;9.642;2023-05-10T06:30:09;0.83;;;0.83;;
11086;SDS011;5597;47.588;9.642;2023-05-10T06:32:35;1.63;;;0.90;;
11086;SDS011;5597;47.588;9.642;2023-05-10T06:35:00;2.20;;;1.00;;
11086;SDS011;5597;47.588;9.642;2023-05-10T06:37:26;0.80;;;0.80;;
11086;SDS011;5597;47.588;9.642;2023-05-10T06:39:51;1.10;;;1.00;;
11086;SDS011;5597;47.588;9.642;2023-05-10T06:42:17;0.80;;;0.80;;
11086;SDS011;5597;47.588;9.642;2023-05-10T06:44:43;0.90;;;0.73;;
11086;SDS011;5597;47.588;9.642;2023-05-10T06:47:08;1.17;;;0.83;;
11086;SDS011;5597;47.588;9.642;2023-05-10T06:49:34;0.80;;;0.70;;
11086;SDS011;5597;47.588;9.642;2023-05-10T06:51:59;1.17;;;0.80;;
11086;SDS011;5597;47.588;9.642;2023-05-10T06:54:25;1.43;;;0.83;;
11086;SDS011;5597;47.588;9.642;2023-05-10T06:56:51;2.20;;;1.13;;
11086;SDS011;5597;47.588;9.642;2023-05-10T06:59:16;2.03;;;1.13;;
11086;SDS011;5597;47.588;9.642;2023-05-10T07:01:44;1.10;;;1.00;;
11086;SDS011;5597;47.588;9.642;2023-05-10T07:04:09;2.00;;;1.10;;
11086;SDS011;5597;47.588;9.642;2023-05-10T07:06:35;1.20;;;1.10;;
11086;SDS011;5597;47.588;9.642;2023-05-10T07:09:01;1.33;;;1.00;;
11086;SDS011;5597;47.588;9.642;2023-05-10T07:11:26;1.47;;;1.10;;
11086;SDS011;5597;47.588;9.642;2023-05-10T07:13:52;1.10;;;1.00;;
11086;SDS011;5597;47.588;9.642;2023-05-10T07:16:17;1.50;;;1.00;;
11086;SDS011;5597;47.588;9.642;2023-05-10T07:18:43;2.27;;;1.00;;
11086;SDS011;5597;47.588;9.642;2023-05-10T07:21:08;0.80;;;0.80;;
11086;SDS011;5597;47.588;9.642;2023-05-10T07:23:34;1.00;;;0.90;;
11086;SDS011;5597;47.588;9.642;2023-05-10T07:26:00;1.10;;;0.90;;
11086;SDS011;5597;47.588;9.642;2023-05-10T07:28:27;1.83;;;1.00;;
11086;SDS011;5597;47.588;9.642;2023-05-10T07:30:52;1.23;;;1.00;;
11086;SDS011;5597;47.588;9.642;2023-05-10T07:33:18;1.33;;;0.97;;
11086;SDS011;5597;47.588;9.642;2023-05-10T07:35:43;2.23;;;1.00;;
11086;SDS011;5597;47.588;9.642;2023-05-10T07:38:09;2.00;;;1.00;;
11086;SDS011;5597;47.588;9.642;2023-05-10T07:40:36;1.10;;;1.00;;
11086;SDS011;5597;47.588;9.642;2023-05-10T07:43:02;1.20;;;1.10;;
11086;SDS011;5597;47.588;9.642;2023-05-10T07:45:27;1.30;;;1.20;;
11086;SDS011;5597;47.588;9.642;2023-05-10T07:47:53;1.47;;;1.20;;
11086;SDS011;5597;47.588;9.642;2023-05-10T07:50:19;0.97;;;0.93;;
11086;SDS011;5597;47.588;9.642;2023-05-10T07:52:46;1.20;;;0.93;;
11086;SDS011;5597;47.588;9.642;2023-05-10T07:55:11;1.00;;;0.90;;
11086;SDS011;5597;47.588;9.642;2023-05-10T07:57:37;1.10;;;0.90;;
11086;SDS011;5597;47.588;9.642;2023-05-10T08:00:03;1.10;;;0.83;;
11086;SDS011;5597;47.588;9.642;2023-05-10T08:02:28;1.20;;;1.10;;
11086;SDS011;5597;47.588;9.642;2023-05-10T08:04:54;1.87;;;0.90;;
11086;SDS011;5597;47.588;9.642;2023-05-10T08:07:20;0.80;;;0.80;;
11086;SDS011;5597;47.588;9.642;2023-05-10T08:09:46;1.07;;;0.97;;
11086;SDS011;5597;47.588;9.642;2023-05-10T08:12:11;0.87;;;0.87;;
11086;SDS011;5597;47.588;9.642;2023-05-10T08:14:37;1.03;;;0.93;;
11086;SDS011;5597;47.588;9.642;2023-05-10T08:17:03;0.90;;;0.87;;
11086;SDS011;5597;47.588;9.642;2023-05-10T08:19:29;0.80;;;0.70;;
11086;SDS011;5597;47.588;9.642;2023-05-10T08:21:54;1.00;;;0.80;;
11086;SDS011;5597;47.588;9.642;2023-05-10T08:24:20;0.90;;;0.73;;
11086;SDS011;5597;47.588;9.642;2023-05-10T08:26:46;1.83;;;0.80;;
11086;SDS011;5597;47.588;9.642;2023-05-10T08:29:13;1.20;;;0.97;;
11086;SDS011;5597;47.588;9.642;2023-05-10T08:31:39;1.43;;;0.83;;
11086;SDS011;5597;47.588;9.642;2023-05-10T08:34:04;1.80;;;0.87;;
11086;SDS011;5597;47.588;9.642;2023-05-10T08:36:30;0.73;;;0.70;;
11086;SDS011;5597;47.588;9.642;2023-05-10T08:38:57;1.00;;;0.83;;
11086;SDS011;5597;47.588;9.642;2023-05-10T08:41:23;1.40;;;0.73;;
11086;SDS011;5597;47.588;9.642;2023-05-10T08:43:50;1.00;;;0.80;;
11086;SDS011;5597;47.588;9.642;2023-05-10T08:46:17;1.33;;;0.90;;
11086;SDS011;5597;47.588;9.642;2023-05-10T08:48:47;1.30;;;0.73;;
11086;SDS011;5597;47.588;9.642;2023-05-10T08:51:14;0.60;;;0.50;;
11086;SDS011;5597;47.588;9.642;2023-05-10T08:53:42;0.70;;;0.67;;
11086;SDS011;5597;47.588;9.642;2023-05-10T08:56:09;1.33;;;0.50;;
11086;SDS011;5597;47.588;9.642;2023-05-10T08:58:35;0.90;;;0.60;;
11086;SDS011;5597;47.588;9.642;2023-05-10T09:01:01;0.70;;;0.70;;
11086;SDS011;5597;47.588;9.642;2023-05-10T09:03:28;0.97;;;0.70;;
11086;SDS011;5597;47.588;9.642;2023-05-10T09:05:54;0.90;;;0.77;;
11086;SDS011;5597;47.588;9.642;2023-05-10T09:08:23;1.03;;;0.63;;
11086;SDS011;5597;47.588;9.642;2023-05-10T09:10:50;1.10;;;0.87;;
11086;SDS011;5597;47.588;9.642;2023-05-10T09:13:17;0.73;;;0.70;;
11086;SDS011;5597;47.588;9.642;2023-05-10T09:15:43;0.87;;;0.70;;
11086;SDS011;5597;47.588;9.642;2023-05-10T09:18:10;0.80;;;0.70;;
11086;SDS011;5597;47.588;9.642;2023-05-10T09:20:36;0.97;;;0.70;;
11086;SDS011;5597;47.588;9.642;2023-05-10T09:23:01;1.63;;;0.70;;
11086;SDS011;5597;47.588;9.642;2023-05-10T09:25:27;0.63;;;0.50;;
11086;SDS011;5597;47.588;9.642;2023-05-10T09:27:52;0.80;;;0.60;;
11086;SDS011;5597;47.588;9.642;2023-05-10T09:30:30;0.97;;;0.50;;
11086;SDS011;5597;47.588;9.642;2023-05-10T09:32:57;0.90;;;0.60;;
11086;SDS011;5597;47.588;9.642;2023-05-10T09:35:24;0.70;;;0.70;;
11086;SDS011;5597;47.588;9.642;2023-05-10T09:37:52;0.70;;;0.70;;
11086;SDS011;5597;47.588;9.642;2023-05-10T09:42:52;1.00;;;0.70;;
11086;SDS011;5597;47.588;9.642;2023-05-10T09:45:26;1.00;;;0.63;;
11086;SDS011;5597;47.588;9.642;2023-05-10T09:47:53;1.97;;;1.00;;
11086;SDS011;5597;47.588;9.642;2023-05-10T09:50:19;0.80;;;0.80;;
11086;SDS011;5597;47.588;9.642;2023-05-10T09:55:22;1.23;;;1.07;;
11086;SDS011;5597;47.588;9.642;2023-05-10T09:57:49;0.93;;;0.80;;
11086;SDS011;5597;47.588;9.642;2023-05-10T10:00:23;3.10;;;0.97;;
11086;SDS011;5597;47.588;9.642;2023-05-10T10:02:55;1.40;;;0.90;;
11086;SDS011;5597;47.588;9.642;2023-05-10T10:05:28;1.40;;;1.10;;
11086;SDS011;5597;47.588;9.642;2023-05-10T10:07:58;2.27;;;1.40;;
11086;SDS011;5597;47.588;9.642;2023-05-10T10:10:25;1.73;;;1.10;;
11086;SDS011;5597;47.588;9.642;2023-05-10T10:12:52;1.87;;;1.10;;
11086;SDS011;5597;47.588;9.642;2023-05-10T10:15:18;2.53;;;0.90;;
11086;SDS011;5597;47.588;9.642;2023-05-10T10:17:45;3.50;;;0.87;;
11086;SDS011;5597;47.588;9.642;2023-05-10T10:20:12;5.13;;;1.00;;
11086;SDS011;5597;47.588;9.642;2023-05-10T10:22:39;2.33;;;1.00;;
11086;SDS011;5597;47.588;9.642;2023-05-10T10:25:05;0.70;;;0.70;;
11086;SDS011;5597;47.588;9.642;2023-05-10T10:32:59;1.77;;;0.80;;
11086;SDS011;5597;47.588;9.642;2023-05-10T10:35:36;1.00;;;0.90;;
11086;SDS011;5597;47.588;9.642;2023-05-10T10:38:02;1.70;;;1.20;;
11086;SDS011;5597;47.588;9.642;2023-05-10T10:40:32;1.43;;;1.20;;
11086;SDS011;5597;47.588;9.642;2023-05-10T10:43:20;1.90;;;0.93;;
11086;SDS011;5597;47.588;9.642;2023-05-10T10:46:09;1.53;;;1.00;;
11086;SDS011;5597;47.588;9.642;2023-05-10T10:48:40;1.63;;;1.10;;
11086;SDS011;5597;47.588;9.642;2023-05-10T10:51:11;1.70;;;1.00;;
11086;SDS011;5597;47.588;9.642;2023-05-10T10:53:39;1.47;;;1.10;;
11086;SDS011;5597;47.588;9.642;2023-05-10T10:56:09;1.50;;;1.00;;
11086;SDS011;5597;47.588;9.642;2023-05-10T10:58:37;1.33;;;0.83;;
11086;SDS011;5597;47.588;9.642;2023-05-10T11:01:10;1.83;;;1.00;;
11086;SDS011;5597;47.588;9.642;2023-05-10T11:03:36;0.70;;;0.70;;
11086;SDS011;5597;47.588;9.642;2023-05-10T11:06:02;0.87;;;0.87;;
11086;SDS011;5597;47.588;9.642;2023-05-10T11:08:29;1.57;;;0.90;;
11086;SDS011;5597;47.588;9.642;2023-05-10T11:13:45;1.13;;;0.93;;
11086;SDS011;5597;47.588;9.642;2023-05-10T11:16:18;3.47;;;2.10;;
11086;SDS011;5597;47.588;9.642;2023-05-10T11:18:58;5.63;;;3.93;;
11086;SDS011;5597;47.588;9.642;2023-05-10T11:21:26;6.47;;;3.87;;
11086;SDS011;5597;47.588;9.642;2023-05-10T11:23:53;2.80;;;2.13;;
11086;SDS011;5597;47.588;9.642;2023-05-10T11:26:30;2.67;;;1.60;;
11086;SDS011;5597;47.588;9.642;2023-05-10T11:28:57;2.10;;;1.60;;
11086;SDS011;5597;47.588;9.642;2023-05-10T11:31:25;2.13;;;1.30;;
11086;SDS011;5597;47.588;9.642;2023-05-10T11:33:55;1.30;;;0.83;;
11086;SDS011;5597;47.588;9.642;2023-05-10T11:36:25;1.47;;;0.80;;
11086;SDS011;5597;47.588;9.642;2023-05-10T11:38:53;1.73;;;1.20;;
11086;SDS011;5597;47.588;9.642;2023-05-10T11:41:19;2.60;;;1.10;;
11086;SDS011;5597;47.588;9.642;2023-05-10T11:43:51;2.00;;;1.07;;
11086;SDS011;5597;47.588;9.642;2023-05-10T11:46:19;1.83;;;1.10;;
11086;SDS011;5597;47.588;9.642;2023-05-10T11:48:50;3.27;;;1.57;;
11086;SDS011;5597;47.588;9.642;2023-05-10T11:51:19;1.00;;;0.90;;
11086;SDS011;5597;47.588;9.642;2023-05-10T11:53:49;1.50;;;0.90;;
11086;SDS011;5597;47.588;9.642;2023-05-10T11:56:20;1.33;;;1.00;;
11086;SDS011;5597;47.588;9.642;2023-05-10T11:58:51;1.83;;;1.10;;
11086;SDS011;5597;47.588;9.642;2023-05-10T12:01:24;1.23;;;1.10;;
11086;SDS011;5597;47.588;9.642;2023-05-10T12:03:51;4.33;;;1.20;;
11086;SDS011;5597;47.588;9.642;2023-05-10T12:06:19;2.00;;;0.90;;
11086;SDS011;5597;47.588;9.642;2023-05-10T12:08:46;2.03;;;1.20;;
11086;SDS011;5597;47.588;9.642;2023-05-10T12:11:12;2.57;;;1.97;;
11086;SDS011;5597;47.588;9.642;2023-05-10T12:13:40;2.13;;;1.70;;
11086;SDS011;5597;47.588;9.642;2023-05-10T12:16:15;3.10;;;2.20;;
11086;SDS011;5597;47.588;9.642;2023-05-10T12:18:44;2.63;;;1.60;;
11086;SDS011;5597;47.588;9.642;2023-05-10T12:21:12;2.17;;;1.37;;
11086;SDS011;5597;47.588;9.642;2023-05-10T12:23:40;1.93;;;1.30;;
11086;SDS011;5597;47.588;9.642;2023-05-10T12:26:06;1.07;;;1.00;;
11086;SDS011;5597;47.588;9.642;2023-05-10T12:28:34;2.30;;;1.53;;
11086;SDS011;5597;47.588;9.642;2023-05-10T12:31:01;2.83;;;2.23;;
11086;SDS011;5597;47.588;9.642;2023-05-10T12:33:27;2.03;;;1.57;;
11086;SDS011;5597;47.588;9.642;2023-05-10T12:36:08;3.60;;;1.77;;
11086;SDS011;5597;47.588;9.642;2023-05-10T12:38:38;2.73;;;1.40;;
11086;SDS011;5597;47.588;9.642;2023-05-10T12:41:12;1.40;;;1.10;;
11086;SDS011;5597;47.588;9.642;2023-05-10T12:43:40;2.23;;;1.20;;
11086;SDS011;5597;47.588;9.642;2023-05-10T12:48:36;1.40;;;1.13;;
11086;SDS011;5597;47.588;9.642;2023-05-10T12:51:03;1.83;;;1.07;;
11086;SDS011;5597;47.588;9.642;2023-05-10T12:53:29;1.90;;;1.00;;
11086;SDS011;5597;47.588;9.642;2023-05-10T12:55:55;1.87;;;1.00;;
11086;SDS011;5597;47.588;9.642;2023-05-10T12:58:21;2.20;;;1.30;;
11086;SDS011;5597;47.588;9.642;2023-05-10T13:00:47;3.47;;;1.17;;
11086;SDS011;5597;47.588;9.642;2023-05-10T13:03:12;2.10;;;1.20;;
11086;SDS011;5597;47.588;9.642;2023-05-10T13:05:38;1.20;;;1.00;;
11086;SDS011;5597;47.588;9.642;2023-05-10T13:08:04;1.37;;;1.00;;
11086;SDS011;5597;47.588;9.642;2023-05-10T13:10:30;1.33;;;0.97;;
11086;SDS011;5597;47.588;9.642;2023-05-10T13:12:56;1.47;;;1.07;;
11086;SDS011;5597;47.588;9.642;2023-05-10T13:15:22;1.93;;;1.20;;
11086;SDS011;5597;47.588;9.642;2023-05-10T13:17:48;1.47;;;1.10;;
11086;SDS011;5597;47.588;9.642;2023-05-10T13:20:13;2.13;;;1.20;;
11086;SDS011;5597;47.588;9.642;2023-05-10T13:22:39;1.83;;;1.00;;
11086;SDS011;5597;47.588;9.642;2023-05-10T13:25:05;1.90;;;1.20;;
11086;SDS011;5597;47.588;9.642;2023-05-10T13:27:31;1.50;;;0.80;;
11086;SDS011;5597;47.588;9.642;2023-05-10T13:29:57;2.87;;;0.90;;
11086;SDS011;5597;47.588;9.642;2023-05-10T13:32:24;3.53;;;0.90;;
11086;SDS011;5597;47.588;9.642;2023-05-10T13:34:50;4.20;;;1.00;;
11086;SDS011;5597;47.588;9.642;2023-05-10T13:37:16;1.53;;;0.87;;
11086;SDS011;5597;47.588;9.642;2023-05-10T13:39:42;3.90;;;1.03;;
11086;SDS011;5597;47.588;9.642;2023-05-10T13:42:07;4.10;;;1.00;;
11086;SDS011;5597;47.588;9.642;2023-05-10T13:44:33;1.70;;;1.10;;
11086;SDS011;5597;47.588;9.642;2023-05-10T13:46:59;1.90;;;1.00;;
11086;SDS011;5597;47.588;9.642;2023-05-10T13:49:24;1.67;;;1.00;;
11086;SDS011;5597;47.588;9.642;2023-05-10T13:51:50;1.60;;;1.00;;
11086;SDS011;5597;47.588;9.642;2023-05-10T13:54:16;1.17;;;0.90;;
11086;SDS011;5597;47.588;9.642;2023-05-10T13:56:44;1.30;;;0.80;;
11086;SDS011;5597;47.588;9.642;2023-05-10T13:59:12;1.43;;;0.90;;
11086;SDS011;5597;47.588;9.642;2023-05-10T14:01:38;1.93;;;0.87;;
11086;SDS011;5597;47.588;9.642;2023-05-10T14:04:04;1.03;;;0.70;;
11086;SDS011;5597;47.588;9.642;2023-05-10T14:06:31;2.70;;;1.07;;
11086;SDS011;5597;47.588;9.642;2023-05-10T14:08:56;1.67;;;0.80;;
11086;SDS011;5597;47.588;9.642;2023-05-10T14:11:22;1.57;;;0.97;;
11086;SDS011;5597;47.588;9.642;2023-05-10T14:13:48;2.27;;;1.03;;
11086;SDS011;5597;47.588;9.642;2023-05-10T14:16:14;2.00;;;0.90;;
11086;SDS011;5597;47.588;9.642;2023-05-10T14:18:39;2.43;;;0.97;;
11086;SDS011;5597;47.588;9.642;2023-05-10T14:21:05;1.20;;;0.90;;
11086;SDS011;5597;47.588;9.642;2023-05-10T14:23:31;1.87;;;0.90;;
11086;SDS011;5597;47.588;9.642;2023-05-10T14:25:57;1.33;;;0.80;;
11086;SDS011;5597;47.588;9.642;2023-05-10T14:28:22;0.80;;;0.63;;
11086;SDS011;5597;47.588;9.642;2023-05-10T14:30:49;1.83;;;1.10;;
11086;SDS011;5597;47.588;9.642;2023-05-10T14:33:16;1.03;;;0.90;;
11086;SDS011;5597;47.588;9.642;2023-05-10T14:35:41;0.80;;;0.70;;
11086;SDS011;5597;47.588;9.642;2023-05-10T14:38:07;1.43;;;0.87;;
11086;SDS011;5597;47.588;9.642;2023-05-10T14:40:33;0.80;;;0.70;;
11086;SDS011;5597;47.588;9.642;2023-05-10T14:42:59;0.80;;;0.80;;
11086;SDS011;5597;47.588;9.642;2023-05-10T14:45:24;1.33;;;0.80;;
11086;SDS011;5597;47.588;9.642;2023-05-10T14:47:50;1.20;;;0.90;;
11086;SDS011;5597;47.588;9.642;2023-05-10T14:50:16;1.03;;;0.73;;
11086;SDS011;5597;47.588;9.642;2023-05-10T14:52:43;2.43;;;1.03;;
11086;SDS011;5597;47.588;9.642;2023-05-10T14:55:09;1.90;;;1.00;;
11086;SDS011;5597;47.588;9.642;2023-05-10T14:57:35;0.93;;;0.77;;
11086;SDS011;5597;47.588;9.642;2023-05-10T15:00:00;2.20;;;1.00;;
11086;SDS011;5597;47.588;9.642;2023-05-10T15:02:26;1.47;;;1.10;;
11086;SDS011;5597;47.588;9.642;2023-05-10T15:04:52;1.53;;;1.10;;
11086;SDS011;5597;47.588;9.642;2023-05-10T15:07:17;1.23;;;0.90;;
11086;SDS011;5597;47.588;9.642;2023-05-10T15:09:43;2.40;;;0.87;;
11086;SDS011;5597;47.588;9.642;2023-05-10T15:12:09;1.00;;;0.70;;
11086;SDS011;5597;47.588;9.642;2023-05-10T15:14:35;2.30;;;1.00;;
11086;SDS011;5597;47.588;9.642;2023-05-10T15:17:01;2.77;;;0.93;;
11086;SDS011;5597;47.588;9.642;2023-05-10T15:19:27;1.37;;;0.80;;
11086;SDS011;5597;47.588;9.642;2023-05-10T15:21:54;1.50;;;0.70;;
11086;SDS011;5597;47.588;9.642;2023-05-10T15:24:20;1.20;;;0.77;;
11086;SDS011;5597;47.588;9.642;2023-05-10T15:26:46;1.57;;;0.70;;
11086;SDS011;5597;47.588;9.642;2023-05-10T15:29:12;1.90;;;1.10;;
11086;SDS011;5597;47.588;9.642;2023-05-10T15:31:44;1.97;;;0.83;;